sensor_id;sensor_type;location;lat;lon;timestamp;pressure;altitude;pressure_sealevel;temperature;humidity
84496;BME280;74855;51.206;17.408;2024-02-04T00:00:08;99767.28;;;8.37;81.36
84496;BME280;74855;51.206;17.408;2024-02-04T00:05:06;99764.22;;;8.40;79.71
84496;BME280;74855;51.206;17.408;2024-02-04T00:10:01;99740.19;;;8.43;79.22
84496;BME280;74855;51.206;17.408;2024-02-04T00:14:57;99729.47;;;8.44;79.23
84496;BME280;74855;51.206;17.408;2024-02-04T00:19:52;99741.00;;;8.43;78.71
84496;BME280;74855;51.206;17.408;2024-02-04T00:24:49;99750.91;;;8.41;78.50
84496;BME280;74855;51.206;17.408;2024-02-04T00:29:45;99746.66;;;8.40;77.95
84496;BME280;74855;51.206;17.408;2024-02-04T00:34:41;99751.09;;;8.40;77.18
84496;BME280;74855;51.206;17.408;2024-02-04T00:39:36;99751.09;;;8.33;77.59
84496;BME280;74855;51.206;17.408;2024-02-04T00:44:33;99761.59;;;8.33;77.30
84496;BME280;74855;51.206;17.408;2024-02-04T00:49:29;99760.00;;;8.32;77.14
84496;BME280;74855;51.206;17.408;2024-02-04T00:54:24;99756.34;;;8.33;76.80
84496;BME280;74855;51.206;17.408;2024-02-04T00:59:20;99756.78;;;8.30;76.94
84496;BME280;74855;51.206;17.408;2024-02-04T01:04:19;99757.34;;;8.26;76.35
84496;BME280;74855;51.206;17.408;2024-02-04T01:09:14;99770.28;;;8.14;76.59
84496;BME280;74855;51.206;17.408;2024-02-04T01:14:10;99760.22;;;8.04;77.14
84496;BME280;74855;51.206;17.408;2024-02-04T01:19:06;99749.50;;;7.93;77.25
84496;BME280;74855;51.206;17.408;2024-02-04T01:24:03;99757.56;;;7.78;77.46
84496;BME280;74855;51.206;17.408;2024-02-04T01:28:58;99747.25;;;7.70;76.76
84496;BME280;74855;51.206;17.408;2024-02-04T01:33:54;99757.16;;;7.61;77.04
84496;BME280;74855;51.206;17.408;2024-02-04T01:38:50;99756.72;;;7.51;76.95
84496;BME280;74855;51.206;17.408;2024-02-04T01:43:47;99751.47;;;7.45;77.21
84496;BME280;74855;51.206;17.408;2024-02-04T01:48:43;99755.34;;;7.49;76.81
84496;BME280;74855;51.206;17.408;2024-02-04T01:53:41;99768.03;;;7.52;76.65
84496;BME280;74855;51.206;17.408;2024-02-04T01:58:37;99764.78;;;7.50;76.95
84496;BME280;74855;51.206;17.408;2024-02-04T02:03:35;99763.59;;;7.52;76.38
84496;BME280;74855;51.206;17.408;2024-02-04T02:08:31;99761.16;;;7.51;76.52
84496;BME280;74855;51.206;17.408;2024-02-04T02:13:34;99758.53;;;7.51;76.66
84496;BME280;74855;51.206;17.408;2024-02-04T02:18:37;99758.75;;;7.56;76.58
84496;BME280;74855;51.206;17.408;2024-02-04T02:23:43;99762.59;;;7.60;76.33
84496;BME280;74855;51.206;17.408;2024-02-04T02:28:45;99755.53;;;7.60;76.37
84496;BME280;74855;51.206;17.408;2024-02-04T02:33:40;99747.69;;;7.67;75.83
84496;BME280;74855;51.206;17.408;2024-02-04T02:38:41;99748.28;;;7.69;76.46
84496;BME280;74855;51.206;17.408;2024-02-04T02:43:40;99746.25;;;7.71;77.08
84496;BME280;74855;51.206;17.408;2024-02-04T02:48:38;99746.06;;;7.73;77.30
84496;BME280;74855;51.206;17.408;2024-02-04T02:53:33;99737.38;;;7.72;77.75
84496;BME280;74855;51.206;17.408;2024-02-04T02:58:29;99741.81;;;7.72;78.24
84496;BME280;74855;51.206;17.408;2024-02-04T03:03:24;99740.00;;;7.72;78.19
84496;BME280;74855;51.206;17.408;2024-02-04T03:08:21;99727.09;;;7.71;77.88
84496;BME280;74855;51.206;17.408;2024-02-04T03:13:17;99741.00;;;7.71;78.09
84496;BME280;74855;51.206;17.408;2024-02-04T03:18:13;99736.56;;;7.72;77.86
84496;BME280;74855;51.206;17.408;2024-02-04T03:23:09;99723.66;;;7.70;78.00
84496;BME280;74855;51.206;17.408;2024-02-04T03:28:06;99723.25;;;7.67;77.95
84496;BME280;74855;51.206;17.408;2024-02-04T03:33:01;99724.06;;;7.67;78.53
84496;BME280;74855;51.206;17.408;2024-02-04T03:37:57;99744.84;;;7.62;78.60
84496;BME280;74855;51.206;17.408;2024-02-04T03:42:52;99741.59;;;7.53;78.30
84496;BME280;74855;51.206;17.408;2024-02-04T03:47:49;99737.53;;;7.38;78.70
84496;BME280;74855;51.206;17.408;2024-02-04T03:52:45;99753.03;;;7.19;78.58
84496;BME280;74855;51.206;17.408;2024-02-04T03:57:41;99743.72;;;7.17;78.73
84496;BME280;74855;51.206;17.408;2024-02-04T04:02:36;99762.09;;;7.23;78.73
84496;BME280;74855;51.206;17.408;2024-02-04T04:07:33;99762.34;;;7.35;78.72
84496;BME280;74855;51.206;17.408;2024-02-04T04:12:29;99770.44;;;7.40;78.40
84496;BME280;74855;51.206;17.408;2024-02-04T04:17:24;99762.56;;;7.40;77.85
84496;BME280;74855;51.206;17.408;2024-02-04T04:22:20;99769.22;;;7.30;77.03
84496;BME280;74855;51.206;17.408;2024-02-04T04:27:17;99773.59;;;7.16;76.82
84496;BME280;74855;51.206;17.408;2024-02-04T04:32:12;99770.50;;;6.99;76.40
84496;BME280;74855;51.206;17.408;2024-02-04T04:37:08;99772.47;;;6.84;76.37
84496;BME280;74855;51.206;17.408;2024-02-04T04:42:04;99797.78;;;6.70;75.68
84496;BME280;74855;51.206;17.408;2024-02-04T04:47:01;99774.94;;;6.58;75.72
84496;BME280;74855;51.206;17.408;2024-02-04T04:51:56;99777.72;;;6.50;75.11
84496;BME280;74855;51.206;17.408;2024-02-04T04:56:52;99776.66;;;6.44;74.91
84496;BME280;74855;51.206;17.408;2024-02-04T05:01:48;99772.25;;;6.44;74.45
84496;BME280;74855;51.206;17.408;2024-02-04T05:06:45;99776.03;;;6.42;73.87
84496;BME280;74855;51.206;17.408;2024-02-04T05:11:41;99767.53;;;6.33;73.57
84496;BME280;74855;51.206;17.408;2024-02-04T05:16:37;99765.88;;;6.26;73.59
84496;BME280;74855;51.206;17.408;2024-02-04T05:21:33;99771.88;;;6.20;73.43
84496;BME280;74855;51.206;17.408;2024-02-04T05:26:30;99785.16;;;6.18;73.95
84496;BME280;74855;51.206;17.408;2024-02-04T05:31:25;99782.28;;;6.13;73.33
84496;BME280;74855;51.206;17.408;2024-02-04T05:36:21;99777.00;;;6.07;73.60
84496;BME280;74855;51.206;17.408;2024-02-04T05:41:16;99772.53;;;6.00;74.14
84496;BME280;74855;51.206;17.408;2024-02-04T05:46:14;99774.88;;;5.95;74.42
84496;BME280;74855;51.206;17.408;2024-02-04T05:51:10;99773.84;;;5.90;73.97
84496;BME280;74855;51.206;17.408;2024-02-04T05:56:06;99771.59;;;5.87;74.09
84496;BME280;74855;51.206;17.408;2024-02-04T06:01:02;99779.78;;;5.84;73.72
84496;BME280;74855;51.206;17.408;2024-02-04T06:05:59;99785.59;;;5.79;73.86
84496;BME280;74855;51.206;17.408;2024-02-04T06:10:55;99780.72;;;5.76;74.25
84496;BME280;74855;51.206;17.408;2024-02-04T06:15:51;99778.31;;;5.75;74.19
84496;BME280;74855;51.206;17.408;2024-02-04T06:20:47;99777.69;;;5.73;74.04
84496;BME280;74855;51.206;17.408;2024-02-04T06:25:43;99795.00;;;5.74;74.20
84496;BME280;74855;51.206;17.408;2024-02-04T06:30:39;99792.38;;;5.74;74.29
84496;BME280;74855;51.206;17.408;2024-02-04T06:35:35;99794.19;;;5.73;74.40
84496;BME280;74855;51.206;17.408;2024-02-04T06:40:30;99778.75;;;5.78;74.50
84496;BME280;74855;51.206;17.408;2024-02-04T06:45:27;99794.50;;;5.85;75.06
84496;BME280;74855;51.206;17.408;2024-02-04T06:50:23;99799.41;;;5.88;75.42
84496;BME280;74855;51.206;17.408;2024-02-04T06:55:18;99801.06;;;5.95;75.48
84496;BME280;74855;51.206;17.408;2024-02-04T07:00:14;99811.56;;;6.02;75.44
84496;BME280;74855;51.206;17.408;2024-02-04T07:05:12;99799.06;;;5.97;75.32
84496;BME280;74855;51.206;17.408;2024-02-04T07:10:08;99792.59;;;5.93;75.64
84496;BME280;74855;51.206;17.408;2024-02-04T07:15:04;99790.78;;;5.94;74.84
84496;BME280;74855;51.206;17.408;2024-02-04T07:20:00;99767.84;;;5.96;75.33
84496;BME280;74855;51.206;17.408;2024-02-04T07:24:56;99772.91;;;5.97;75.31
84496;BME280;74855;51.206;17.408;2024-02-04T07:29:52;99763.25;;;5.98;74.66
84496;BME280;74855;51.206;17.408;2024-02-04T07:34:48;99757.66;;;6.01;74.93
84496;BME280;74855;51.206;17.408;2024-02-04T07:39:43;99768.59;;;6.11;75.16
84496;BME280;74855;51.206;17.408;2024-02-04T07:44:40;99782.56;;;6.25;74.80
84496;BME280;74855;51.206;17.408;2024-02-04T07:49:36;99776.47;;;6.46;74.31
84496;BME280;74855;51.206;17.408;2024-02-04T07:54:31;99783.09;;;6.76;73.44
84496;BME280;74855;51.206;17.408;2024-02-04T07:59:27;99776.72;;;6.98;72.93
84496;BME280;74855;51.206;17.408;2024-02-04T08:04:24;99783.84;;;7.11;72.26
84496;BME280;74855;51.206;17.408;2024-02-04T08:09:19;99789.41;;;7.42;71.70
84496;BME280;74855;51.206;17.408;2024-02-04T08:14:15;99780.00;;;7.74;70.61
84496;BME280;74855;51.206;17.408;2024-02-04T08:19:10;99789.47;;;7.82;69.57
84496;BME280;74855;51.206;17.408;2024-02-04T08:24:07;99789.66;;;7.74;69.60
84496;BME280;74855;51.206;17.408;2024-02-04T08:29:03;99786.25;;;7.86;68.18
84496;BME280;74855;51.206;17.408;2024-02-04T08:33:59;99777.38;;;8.33;67.53
84496;BME280;74855;51.206;17.408;2024-02-04T08:38:54;99770.69;;;9.15;65.68
84496;BME280;74855;51.206;17.408;2024-02-04T08:43:51;99760.38;;;9.76;62.76
84496;BME280;74855;51.206;17.408;2024-02-04T08:48:47;99762.09;;;10.38;61.88
84496;BME280;74855;51.206;17.408;2024-02-04T08:53:42;99763.09;;;11.29;57.81
84496;BME280;74855;51.206;17.408;2024-02-04T08:58:38;99749.75;;;11.65;57.29
84496;BME280;74855;51.206;17.408;2024-02-04T09:03:35;99752.06;;;12.26;54.16
84496;BME280;74855;51.206;17.408;2024-02-04T09:08:31;99747.34;;;12.52;53.55
84496;BME280;74855;51.206;17.408;2024-02-04T09:13:26;99745.81;;;12.67;50.42
84496;BME280;74855;51.206;17.408;2024-02-04T09:18:22;99721.72;;;12.40;52.76
84496;BME280;74855;51.206;17.408;2024-02-04T09:23:28;99715.03;;;12.38;51.76
84496;BME280;74855;51.206;17.408;2024-02-04T09:28:24;99719.47;;;13.01;49.72
84496;BME280;74855;51.206;17.408;2024-02-04T09:33:20;99721.97;;;14.14;48.93
84496;BME280;74855;51.206;17.408;2024-02-04T09:38:16;99725.75;;;15.00;42.83
84496;BME280;74855;51.206;17.408;2024-02-04T09:43:13;99722.63;;;15.57;42.41
84496;BME280;74855;51.206;17.408;2024-02-04T09:48:09;99713.47;;;14.72;42.87
84496;BME280;74855;51.206;17.408;2024-02-04T09:53:07;99711.09;;;14.71;43.62
84496;BME280;74855;51.206;17.408;2024-02-04T09:58:04;99715.72;;;15.29;43.14
84496;BME280;74855;51.206;17.408;2024-02-04T10:03:02;99708.44;;;16.15;42.04
84496;BME280;74855;51.206;17.408;2024-02-04T10:07:59;99699.63;;;15.73;42.43
84496;BME280;74855;51.206;17.408;2024-02-04T10:12:55;99687.75;;;15.21;42.96
84496;BME280;74855;51.206;17.408;2024-02-04T10:17:50;99692.47;;;14.66;43.80
84496;BME280;74855;51.206;17.408;2024-02-04T10:22:47;99680.78;;;14.28;44.40
84496;BME280;74855;51.206;17.408;2024-02-04T10:27:43;99677.84;;;13.70;45.86
84496;BME280;74855;51.206;17.408;2024-02-04T10:32:39;99659.72;;;13.16;47.12
84496;BME280;74855;51.206;17.408;2024-02-04T10:37:34;99657.72;;;12.27;48.38
84496;BME280;74855;51.206;17.408;2024-02-04T10:42:31;99657.34;;;11.53;50.36
84496;BME280;74855;51.206;17.408;2024-02-04T10:47:30;99630.63;;;11.08;52.46
84496;BME280;74855;51.206;17.408;2024-02-04T10:52:27;99636.59;;;10.74;53.49
84496;BME280;74855;51.206;17.408;2024-02-04T10:57:23;99644.13;;;10.40;54.06
84496;BME280;74855;51.206;17.408;2024-02-04T11:02:20;99626.84;;;10.26;55.43
84496;BME280;74855;51.206;17.408;2024-02-04T11:07:17;99612.13;;;10.97;54.82
84496;BME280;74855;51.206;17.408;2024-02-04T11:12:14;99609.38;;;11.45;54.52
84496;BME280;74855;51.206;17.408;2024-02-04T11:17:31;99590.34;;;11.78;53.71
84496;BME280;74855;51.206;17.408;2024-02-04T11:22:49;99576.22;;;11.84;53.86
84496;BME280;74855;51.206;17.408;2024-02-04T11:27:50;99586.91;;;11.77;53.16
84496;BME280;74855;51.206;17.408;2024-02-04T11:32:47;99560.81;;;11.81;53.19
84496;BME280;74855;51.206;17.408;2024-02-04T11:37:42;99545.53;;;11.94;54.02
84496;BME280;74855;51.206;17.408;2024-02-04T11:42:38;99531.84;;;12.09;52.91
84496;BME280;74855;51.206;17.408;2024-02-04T11:47:34;99552.16;;;12.09;53.95
84496;BME280;74855;51.206;17.408;2024-02-04T11:52:31;99548.19;;;11.71;54.09
84496;BME280;74855;51.206;17.408;2024-02-04T11:57:27;99538.56;;;11.42;55.75
84496;BME280;74855;51.206;17.408;2024-02-04T12:02:22;99537.19;;;11.39;56.40
84496;BME280;74855;51.206;17.408;2024-02-04T12:07:19;99521.56;;;11.14;57.31
84496;BME280;74855;51.206;17.408;2024-02-04T12:12:16;99521.00;;;11.36;57.42
84496;BME280;74855;51.206;17.408;2024-02-04T12:17:12;99505.03;;;11.42;57.41
84496;BME280;74855;51.206;17.408;2024-02-04T12:22:08;99494.81;;;11.46;57.70
84496;BME280;74855;51.206;17.408;2024-02-04T12:27:04;99485.44;;;11.38;58.00
84496;BME280;74855;51.206;17.408;2024-02-04T12:32:02;99480.94;;;11.15;59.14
84496;BME280;74855;51.206;17.408;2024-02-04T12:36:58;99456.41;;;11.03;59.78
84496;BME280;74855;51.206;17.408;2024-02-04T12:41:54;99452.38;;;10.89;60.44
84496;BME280;74855;51.206;17.408;2024-02-04T12:46:51;99451.59;;;10.89;61.55
84496;BME280;74855;51.206;17.408;2024-02-04T12:51:48;99430.94;;;10.97;61.62
84496;BME280;74855;51.206;17.408;2024-02-04T12:56:45;99415.69;;;11.11;61.83
84496;BME280;74855;51.206;17.408;2024-02-04T13:01:41;99420.81;;;11.41;61.64
84496;BME280;74855;51.206;17.408;2024-02-04T13:06:38;99407.09;;;11.67;60.21
84496;BME280;74855;51.206;17.408;2024-02-04T13:11:35;99399.44;;;11.94;60.16
84496;BME280;74855;51.206;17.408;2024-02-04T13:16:31;99406.59;;;12.10;59.81
84496;BME280;74855;51.206;17.408;2024-02-04T13:21:26;99394.38;;;11.64;60.61
84496;BME280;74855;51.206;17.408;2024-02-04T13:26:23;99396.06;;;11.18;61.11
84496;BME280;74855;51.206;17.408;2024-02-04T13:31:20;99387.63;;;10.81;61.78
84496;BME280;74855;51.206;17.408;2024-02-04T13:36:16;99389.31;;;10.64;63.08
84496;BME280;74855;51.206;17.408;2024-02-04T13:41:11;99381.41;;;10.53;63.76
84496;BME280;74855;51.206;17.408;2024-02-04T13:46:07;99366.41;;;10.41;64.42
84496;BME280;74855;51.206;17.408;2024-02-04T13:51:05;99371.41;;;10.31;64.81
84496;BME280;74855;51.206;17.408;2024-02-04T13:56:01;99363.41;;;10.26;65.22
84496;BME280;74855;51.206;17.408;2024-02-04T14:00:57;99381.25;;;10.24;64.04
84496;BME280;74855;51.206;17.408;2024-02-04T14:05:54;99361.44;;;10.22;64.01
84496;BME280;74855;51.206;17.408;2024-02-04T14:10:51;99361.66;;;10.20;63.36
84496;BME280;74855;51.206;17.408;2024-02-04T14:15:46;99373.47;;;10.18;63.63
84496;BME280;74855;51.206;17.408;2024-02-04T14:20:42;99374.69;;;10.15;63.82
84496;BME280;74855;51.206;17.408;2024-02-04T14:25:38;99375.06;;;10.19;64.45
84496;BME280;74855;51.206;17.408;2024-02-04T14:30:35;99379.09;;;10.21;64.14
84496;BME280;74855;51.206;17.408;2024-02-04T14:35:31;99381.13;;;10.19;63.98
84496;BME280;74855;51.206;17.408;2024-02-04T14:40:28;99364.78;;;10.17;63.80
84496;BME280;74855;51.206;17.408;2024-02-04T14:45:23;99346.97;;;10.13;63.65
84496;BME280;74855;51.206;17.408;2024-02-04T14:50:20;99346.03;;;10.07;64.00
84496;BME280;74855;51.206;17.408;2024-02-04T14:55:16;99330.91;;;10.02;64.80
84496;BME280;74855;51.206;17.408;2024-02-04T15:00:12;99323.13;;;9.96;64.70
84496;BME280;74855;51.206;17.408;2024-02-04T15:05:08;99333.53;;;9.91;65.80
84496;BME280;74855;51.206;17.408;2024-02-04T15:10:06;99347.22;;;9.81;65.58
84496;BME280;74855;51.206;17.408;2024-02-04T15:15:04;99346.28;;;9.76;65.59
84496;BME280;74855;51.206;17.408;2024-02-04T15:20:00;99326.56;;;9.66;66.23
84496;BME280;74855;51.206;17.408;2024-02-04T15:24:57;99352.63;;;9.56;66.45
84496;BME280;74855;51.206;17.408;2024-02-04T15:29:55;99343.53;;;9.41;66.56
84496;BME280;74855;51.206;17.408;2024-02-04T15:34:51;99351.56;;;9.46;67.35
84496;BME280;74855;51.206;17.408;2024-02-04T15:39:47;99354.41;;;9.44;66.67
84496;BME280;74855;51.206;17.408;2024-02-04T15:44:43;99352.78;;;9.43;67.27
84496;BME280;74855;51.206;17.408;2024-02-04T15:49:41;99345.78;;;9.37;66.59
84496;BME280;74855;51.206;17.408;2024-02-04T15:54:37;99350.53;;;9.29;64.75
84496;BME280;74855;51.206;17.408;2024-02-04T15:59:45;99372.09;;;9.19;64.45
84496;BME280;74855;51.206;17.408;2024-02-04T16:04:45;99377.88;;;9.09;64.98
84496;BME280;74855;51.206;17.408;2024-02-04T16:09:41;99376.19;;;8.97;65.19
84496;BME280;74855;51.206;17.408;2024-02-04T16:14:38;99393.13;;;8.82;64.68
84496;BME280;74855;51.206;17.408;2024-02-04T16:19:35;99389.16;;;8.73;65.45
84496;BME280;74855;51.206;17.408;2024-02-04T16:24:33;99388.63;;;8.65;65.13
84496;BME280;74855;51.206;17.408;2024-02-04T16:29:28;99386.03;;;8.58;64.58
84496;BME280;74855;51.206;17.408;2024-02-04T16:34:24;99401.28;;;8.50;64.84
84496;BME280;74855;51.206;17.408;2024-02-04T16:39:21;99400.13;;;8.39;64.68
84496;BME280;74855;51.206;17.408;2024-02-04T16:44:19;99393.94;;;8.27;64.78
84496;BME280;74855;51.206;17.408;2024-02-04T16:49:15;99397.84;;;8.18;63.67
84496;BME280;74855;51.206;17.408;2024-02-04T16:54:10;99394.88;;;8.07;63.59
84496;BME280;74855;51.206;17.408;2024-02-04T16:59:06;99393.09;;;8.01;63.39
84496;BME280;74855;51.206;17.408;2024-02-04T17:04:04;99384.69;;;7.93;63.49
84496;BME280;74855;51.206;17.408;2024-02-04T17:09:00;99391.38;;;7.89;63.39
84496;BME280;74855;51.206;17.408;2024-02-04T17:13:57;99389.97;;;7.86;63.60
84496;BME280;74855;51.206;17.408;2024-02-04T17:18:57;99390.78;;;7.87;63.39
84496;BME280;74855;51.206;17.408;2024-02-04T17:24:04;99392.16;;;7.89;63.50
84496;BME280;74855;51.206;17.408;2024-02-04T17:29:05;99377.44;;;7.88;63.23
84496;BME280;74855;51.206;17.408;2024-02-04T17:34:03;99375.81;;;7.87;63.56
84496;BME280;74855;51.206;17.408;2024-02-04T17:39:00;99377.06;;;7.85;63.46
84496;BME280;74855;51.206;17.408;2024-02-04T17:43:56;99377.28;;;7.83;63.72
84496;BME280;74855;51.206;17.408;2024-02-04T17:48:51;99375.44;;;7.84;63.36
84496;BME280;74855;51.206;17.408;2024-02-04T17:53:47;99364.94;;;7.84;63.25
84496;BME280;74855;51.206;17.408;2024-02-04T17:58:45;99362.13;;;7.85;62.71
84496;BME280;74855;51.206;17.408;2024-02-04T18:03:40;99363.75;;;7.86;62.77
84496;BME280;74855;51.206;17.408;2024-02-04T18:08:36;99381.06;;;7.87;62.42
84496;BME280;74855;51.206;17.408;2024-02-04T18:13:34;99370.56;;;7.87;62.09
84496;BME280;74855;51.206;17.408;2024-02-04T18:18:33;99364.31;;;7.88;62.36
84496;BME280;74855;51.206;17.408;2024-02-04T18:23:29;99374.81;;;7.88;62.39
84496;BME280;74855;51.206;17.408;2024-02-04T18:28:25;99366.72;;;7.90;62.73
84496;BME280;74855;51.206;17.408;2024-02-04T18:33:20;99357.44;;;7.87;62.99
84496;BME280;74855;51.206;17.408;2024-02-04T18:38:18;99358.69;;;7.85;63.38
84496;BME280;74855;51.206;17.408;2024-02-04T18:43:16;99339.34;;;7.79;63.96
84496;BME280;74855;51.206;17.408;2024-02-04T18:48:12;99357.31;;;7.76;64.36
84496;BME280;74855;51.206;17.408;2024-02-04T18:53:08;99343.19;;;7.77;64.14
84496;BME280;74855;51.206;17.408;2024-02-04T18:58:05;99343.78;;;7.79;64.41
84496;BME280;74855;51.206;17.408;2024-02-04T19:03:02;99332.50;;;7.78;63.68
84496;BME280;74855;51.206;17.408;2024-02-04T19:07:58;99348.41;;;7.83;63.65
84496;BME280;74855;51.206;17.408;2024-02-04T19:12:55;99346.38;;;7.85;63.44
84496;BME280;74855;51.206;17.408;2024-02-04T19:17:52;99348.81;;;7.87;63.73
84496;BME280;74855;51.206;17.408;2024-02-04T19:22:48;99360.88;;;7.88;63.98
84496;BME280;74855;51.206;17.408;2024-02-04T19:27:48;99351.63;;;7.85;63.80
84496;BME280;74855;51.206;17.408;2024-02-04T19:32:45;99332.06;;;7.81;63.48
84496;BME280;74855;51.206;17.408;2024-02-04T19:37:43;99348.19;;;7.85;63.51
84496;BME280;74855;51.206;17.408;2024-02-04T19:42:41;99346.19;;;7.87;63.49
84496;BME280;74855;51.206;17.408;2024-02-04T19:47:37;99343.31;;;7.88;63.49
84496;BME280;74855;51.206;17.408;2024-02-04T19:52:34;99342.94;;;7.85;63.57
84496;BME280;74855;51.206;17.408;2024-02-04T19:57:32;99344.97;;;7.83;63.14
84496;BME280;74855;51.206;17.408;2024-02-04T20:02:27;99340.31;;;7.85;63.10
84496;BME280;74855;51.206;17.408;2024-02-04T20:07:23;99339.09;;;7.87;63.25
84496;BME280;74855;51.206;17.408;2024-02-04T20:12:19;99335.44;;;7.88;62.82
84496;BME280;74855;51.206;17.408;2024-02-04T20:17:16;99324.94;;;7.88;62.84
84496;BME280;74855;51.206;17.408;2024-02-04T20:22:12;99322.94;;;7.90;63.19
84496;BME280;74855;51.206;17.408;2024-02-04T20:27:08;99332.22;;;7.93;62.97
84496;BME280;74855;51.206;17.408;2024-02-04T20:32:04;99321.47;;;7.94;62.92
84496;BME280;74855;51.206;17.408;2024-02-04T20:37:02;99327.13;;;7.98;63.08
84496;BME280;74855;51.206;17.408;2024-02-04T20:41:57;99309.56;;;7.98;63.09
84496;BME280;74855;51.206;17.408;2024-02-04T20:46:54;99311.38;;;7.98;63.40
84496;BME280;74855;51.206;17.408;2024-02-04T20:51:49;99297.44;;;7.97;63.44
84496;BME280;74855;51.206;17.408;2024-02-04T20:56:47;99287.16;;;7.96;63.70
84496;BME280;74855;51.206;17.408;2024-02-04T21:01:46;99304.72;;;7.95;64.02
84496;BME280;74855;51.206;17.408;2024-02-04T21:06:42;99312.00;;;7.93;64.18
84496;BME280;74855;51.206;17.408;2024-02-04T21:11:38;99304.34;;;7.92;64.59
84496;BME280;74855;51.206;17.408;2024-02-04T21:16:35;99283.19;;;7.87;65.11
84496;BME280;74855;51.206;17.408;2024-02-04T21:21:31;99299.00;;;7.80;66.03
84496;BME280;74855;51.206;17.408;2024-02-04T21:26:27;99314.16;;;7.72;66.84
84496;BME280;74855;51.206;17.408;2024-02-04T21:31:22;99291.66;;;7.57;68.33
84496;BME280;74855;51.206;17.408;2024-02-04T21:36:20;99305.28;;;7.41;69.12
84496;BME280;74855;51.206;17.408;2024-02-04T21:41:19;99293.25;;;7.27;69.64
84496;BME280;74855;51.206;17.408;2024-02-04T21:46:16;99273.50;;;7.18;70.68
84496;BME280;74855;51.206;17.408;2024-02-04T21:51:12;99272.16;;;7.09;71.30
84496;BME280;74855;51.206;17.408;2024-02-04T21:56:09;99280.06;;;6.96;72.26
84496;BME280;74855;51.206;17.408;2024-02-04T22:01:06;99287.53;;;6.85;73.26
84496;BME280;74855;51.206;17.408;2024-02-04T22:06:02;99282.75;;;6.76;73.51
84496;BME280;74855;51.206;17.408;2024-02-04T22:10:58;99279.72;;;6.72;74.14
84496;BME280;74855;51.206;17.408;2024-02-04T22:15:55;99282.97;;;6.68;74.56
84496;BME280;74855;51.206;17.408;2024-02-04T22:20:51;99264.06;;;6.59;74.83
84496;BME280;74855;51.206;17.408;2024-02-04T22:25:47;99262.47;;;6.52;75.92
84496;BME280;74855;51.206;17.408;2024-02-04T22:30:43;99277.97;;;6.47;76.58
84496;BME280;74855;51.206;17.408;2024-02-04T22:35:41;99255.47;;;6.39;77.27
84496;BME280;74855;51.206;17.408;2024-02-04T22:40:36;99274.97;;;6.36;77.04
84496;BME280;74855;51.206;17.408;2024-02-04T22:45:32;99257.09;;;6.33;77.52
84496;BME280;74855;51.206;17.408;2024-02-04T22:50:28;99261.91;;;6.30;77.83
84496;BME280;74855;51.206;17.408;2024-02-04T22:55:26;99252.44;;;6.29;77.74
84496;BME280;74855;51.206;17.408;2024-02-04T23:00:22;99256.06;;;6.28;77.80
84496;BME280;74855;51.206;17.408;2024-02-04T23:05:18;99250.81;;;6.28;77.88
84496;BME280;74855;51.206;17.408;2024-02-04T23:10:14;99242.97;;;6.28;78.32
84496;BME280;74855;51.206;17.408;2024-02-04T23:15:11;99234.91;;;6.29;78.71
84496;BME280;74855;51.206;17.408;2024-02-04T23:20:08;99226.25;;;6.29;78.22
84496;BME280;74855;51.206;17.408;2024-02-04T23:25:04;99224.44;;;6.29;78.74
84496;BME280;74855;51.206;17.408;2024-02-04T23:30:01;99223.66;;;6.29;78.59
84496;BME280;74855;51.206;17.408;2024-02-04T23:34:58;99219.63;;;6.26;78.67
84496;BME280;74855;51.206;17.408;2024-02-04T23:39:54;99208.38;;;6.26;78.77
84496;BME280;74855;51.206;17.408;2024-02-04T23:44:50;99199.72;;;6.25;79.43
84496;BME280;74855;51.206;17.408;2024-02-04T23:49:45;99204.53;;;6.22;79.46
84496;BME280;74855;51.206;17.408;2024-02-04T23:54:42;99193.88;;;6.23;79.90
84496;BME280;74855;51.206;17.408;2024-02-04T23:59:38;99179.16;;;6.22;79.79
